sensor_id;sensor_type;location;lat;lon;timestamp;temperature;humidity
24522;DHT22;12680;57.804;12.190;2022-11-02T00:01:52;13.50;99.90
24522;DHT22;12680;57.804;12.190;2022-11-02T00:04:20;13.50;99.90
24522;DHT22;12680;57.804;12.190;2022-11-02T00:06:47;13.50;99.90
24522;DHT22;12680;57.804;12.190;2022-11-02T00:09:14;13.50;99.90
24522;DHT22;12680;57.804;12.190;2022-11-02T00:11:41;13.50;99.90
24522;DHT22;12680;57.804;12.190;2022-11-02T00:14:08;13.50;99.90
24522;DHT22;12680;57.804;12.190;2022-11-02T00:16:38;13.50;99.90
24522;DHT22;12680;57.804;12.190;2022-11-02T00:19:07;13.50;99.90
24522;DHT22;12680;57.804;12.190;2022-11-02T00:21:35;13.50;99.90
24522;DHT22;12680;57.804;12.190;2022-11-02T00:24:04;13.50;99.90
24522;DHT22;12680;57.804;12.190;2022-11-02T00:26:34;13.50;99.90
24522;DHT22;12680;57.804;12.190;2022-11-02T00:29:03;13.40;99.90
24522;DHT22;12680;57.804;12.190;2022-11-02T00:31:31;13.40;99.90
24522;DHT22;12680;57.804;12.190;2022-11-02T00:33:58;13.40;99.90
24522;DHT22;12680;57.804;12.190;2022-11-02T00:36:25;13.40;99.90
24522;DHT22;12680;57.804;12.190;2022-11-02T00:38:53;13.40;99.90
24522;DHT22;12680;57.804;12.190;2022-11-02T00:41:21;13.40;99.90
24522;DHT22;12680;57.804;12.190;2022-11-02T00:43:48;13.40;99.90
24522;DHT22;12680;57.804;12.190;2022-11-02T00:46:15;13.40;99.90
24522;DHT22;12680;57.804;12.190;2022-11-02T00:48:42;13.40;99.90
24522;DHT22;12680;57.804;12.190;2022-11-02T00:51:09;13.30;99.90
24522;DHT22;12680;57.804;12.190;2022-11-02T00:53:37;13.30;99.90
24522;DHT22;12680;57.804;12.190;2022-11-02T00:56:04;13.30;99.90
24522;DHT22;12680;57.804;12.190;2022-11-02T00:58:32;13.30;99.90
24522;DHT22;12680;57.804;12.190;2022-11-02T01:01:03;13.30;99.90
24522;DHT22;12680;57.804;12.190;2022-11-02T01:03:31;13.30;99.90
24522;DHT22;12680;57.804;12.190;2022-11-02T01:05:58;13.30;99.90
24522;DHT22;12680;57.804;12.190;2022-11-02T01:08:25;13.30;99.90
24522;DHT22;12680;57.804;12.190;2022-11-02T01:10:52;13.30;99.90
24522;DHT22;12680;57.804;12.190;2022-11-02T01:13:19;13.30;99.90
24522;DHT22;12680;57.804;12.190;2022-11-02T01:15:47;13.20;99.90
24522;DHT22;12680;57.804;12.190;2022-11-02T01:18:14;13.20;99.90
24522;DHT22;12680;57.804;12.190;2022-11-02T01:20:41;13.10;99.90
24522;DHT22;12680;57.804;12.190;2022-11-02T01:23:08;13.00;99.90
24522;DHT22;12680;57.804;12.190;2022-11-02T01:25:35;13.00;99.90
24522;DHT22;12680;57.804;12.190;2022-11-02T01:28:02;12.90;99.90
24522;DHT22;12680;57.804;12.190;2022-11-02T01:30:30;12.90;99.90
24522;DHT22;12680;57.804;12.190;2022-11-02T01:32:57;12.80;99.90
24522;DHT22;12680;57.804;12.190;2022-11-02T01:35:24;12.70;99.90
24522;DHT22;12680;57.804;12.190;2022-11-02T01:37:52;12.60;99.90
24522;DHT22;12680;57.804;12.190;2022-11-02T01:40:19;12.60;99.90
24522;DHT22;12680;57.804;12.190;2022-11-02T01:42:46;12.50;99.90
24522;DHT22;12680;57.804;12.190;2022-11-02T01:45:13;12.50;99.90
24522;DHT22;12680;57.804;12.190;2022-11-02T01:47:44;12.40;99.90
24522;DHT22;12680;57.804;12.190;2022-11-02T01:50:25;12.40;99.90
24522;DHT22;12680;57.804;12.190;2022-11-02T01:52:53;12.30;99.90
24522;DHT22;12680;57.804;12.190;2022-11-02T01:55:23;12.30;99.90
24522;DHT22;12680;57.804;12.190;2022-11-02T01:57:56;12.20;99.90
24522;DHT22;12680;57.804;12.190;2022-11-02T02:00:24;12.20;99.90
24522;DHT22;12680;57.804;12.190;2022-11-02T02:02:54;12.20;99.90
24522;DHT22;12680;57.804;12.190;2022-11-02T02:05:23;12.10;99.90
24522;DHT22;12680;57.804;12.190;2022-11-02T02:07:51;12.10;99.90
24522;DHT22;12680;57.804;12.190;2022-11-02T02:10:22;12.10;99.90
24522;DHT22;12680;57.804;12.190;2022-11-02T02:12:50;12.00;99.90
24522;DHT22;12680;57.804;12.190;2022-11-02T02:15:20;12.00;99.90
24522;DHT22;12680;57.804;12.190;2022-11-02T02:18:05;11.90;99.90
24522;DHT22;12680;57.804;12.190;2022-11-02T02:29:35;11.80;99.90
24522;DHT22;12680;57.804;12.190;2022-11-02T02:34:53;11.70;99.90
24522;DHT22;12680;57.804;12.190;2022-11-02T02:37:34;11.70;99.90
24522;DHT22;12680;57.804;12.190;2022-11-02T02:40:29;11.70;99.90
24522;DHT22;12680;57.804;12.190;2022-11-02T02:43:01;11.70;99.90
24522;DHT22;12680;57.804;12.190;2022-11-02T02:48:04;11.70;99.90
24522;DHT22;12680;57.804;12.190;2022-11-02T02:50:38;11.60;99.90
24522;DHT22;12680;57.804;12.190;2022-11-02T02:53:07;11.60;99.90
24522;DHT22;12680;57.804;12.190;2022-11-02T02:55:39;11.60;99.90
24522;DHT22;12680;57.804;12.190;2022-11-02T02:58:12;11.60;99.90
24522;DHT22;12680;57.804;12.190;2022-11-02T03:00:43;11.60;99.90
24522;DHT22;12680;57.804;12.190;2022-11-02T03:03:17;11.60;99.90
24522;DHT22;12680;57.804;12.190;2022-11-02T03:06:18;11.60;99.90
24522;DHT22;12680;57.804;12.190;2022-11-02T03:09:13;11.60;99.90
24522;DHT22;12680;57.804;12.190;2022-11-02T03:17:05;11.60;99.90
24522;DHT22;12680;57.804;12.190;2022-11-02T03:19:52;11.60;99.90
24522;DHT22;12680;57.804;12.190;2022-11-02T03:22:48;11.70;99.90
24522;DHT22;12680;57.804;12.190;2022-11-02T03:25:29;11.70;99.90
24522;DHT22;12680;57.804;12.190;2022-11-02T03:30:35;11.80;99.90
24522;DHT22;12680;57.804;12.190;2022-11-02T03:33:21;11.70;99.90
24522;DHT22;12680;57.804;12.190;2022-11-02T03:35:55;11.80;99.90
24522;DHT22;12680;57.804;12.190;2022-11-02T03:41:04;11.90;99.90
24522;DHT22;12680;57.804;12.190;2022-11-02T03:43:34;11.90;99.90
24522;DHT22;12680;57.804;12.190;2022-11-02T03:46:05;12.00;99.90
24522;DHT22;12680;57.804;12.190;2022-11-02T03:48:42;12.00;99.90
24522;DHT22;12680;57.804;12.190;2022-11-02T03:51:12;12.10;99.90
24522;DHT22;12680;57.804;12.190;2022-11-02T03:53:48;12.00;99.90
24522;DHT22;12680;57.804;12.190;2022-11-02T03:56:29;12.10;99.90
24522;DHT22;12680;57.804;12.190;2022-11-02T03:58:58;12.10;99.90
24522;DHT22;12680;57.804;12.190;2022-11-02T04:01:26;12.10;99.90
24522;DHT22;12680;57.804;12.190;2022-11-02T04:03:55;12.20;99.90
24522;DHT22;12680;57.804;12.190;2022-11-02T04:06:23;12.20;99.90
24522;DHT22;12680;57.804;12.190;2022-11-02T04:08:51;12.20;99.90
24522;DHT22;12680;57.804;12.190;2022-11-02T04:11:19;12.20;99.90
24522;DHT22;12680;57.804;12.190;2022-11-02T04:14:05;12.20;99.90
24522;DHT22;12680;57.804;12.190;2022-11-02T04:16:51;12.30;99.90
24522;DHT22;12680;57.804;12.190;2022-11-02T04:19:40;12.30;99.90
24522;DHT22;12680;57.804;12.190;2022-11-02T04:22:14;12.30;99.90
24522;DHT22;12680;57.804;12.190;2022-11-02T04:25:00;12.30;99.90
24522;DHT22;12680;57.804;12.190;2022-11-02T04:27:47;12.30;99.90
24522;DHT22;12680;57.804;12.190;2022-11-02T04:30:16;12.30;99.90
24522;DHT22;12680;57.804;12.190;2022-11-02T04:32:45;12.30;99.90
24522;DHT22;12680;57.804;12.190;2022-11-02T04:35:32;12.30;99.90
24522;DHT22;12680;57.804;12.190;2022-11-02T04:38:00;12.40;99.90
24522;DHT22;12680;57.804;12.190;2022-11-02T04:40:46;12.30;99.90
24522;DHT22;12680;57.804;12.190;2022-11-02T04:43:13;12.30;99.90
24522;DHT22;12680;57.804;12.190;2022-11-02T04:45:40;12.40;99.90
24522;DHT22;12680;57.804;12.190;2022-11-02T04:48:08;12.40;99.90
24522;DHT22;12680;57.804;12.190;2022-11-02T04:50:35;12.40;99.90
24522;DHT22;12680;57.804;12.190;2022-11-02T04:53:04;12.40;99.90
24522;DHT22;12680;57.804;12.190;2022-11-02T04:55:33;12.40;99.90
24522;DHT22;12680;57.804;12.190;2022-11-02T04:58:00;12.40;99.90
24522;DHT22;12680;57.804;12.190;2022-11-02T05:00:28;12.40;99.90
24522;DHT22;12680;57.804;12.190;2022-11-02T05:02:55;12.40;99.90
24522;DHT22;12680;57.804;12.190;2022-11-02T05:05:26;12.40;99.90
24522;DHT22;12680;57.804;12.190;2022-11-02T05:07:53;12.50;99.90
24522;DHT22;12680;57.804;12.190;2022-11-02T05:10:20;12.20;99.90
24522;DHT22;12680;57.804;12.190;2022-11-02T05:12:48;12.50;99.90
24522;DHT22;12680;57.804;12.190;2022-11-02T05:15:21;12.50;99.90
24522;DHT22;12680;57.804;12.190;2022-11-02T05:17:48;12.50;99.90
24522;DHT22;12680;57.804;12.190;2022-11-02T05:20:16;12.50;99.90
24522;DHT22;12680;57.804;12.190;2022-11-02T05:22:43;12.50;99.90
24522;DHT22;12680;57.804;12.190;2022-11-02T05:25:11;12.50;99.90
24522;DHT22;12680;57.804;12.190;2022-11-02T05:27:38;12.50;99.90
24522;DHT22;12680;57.804;12.190;2022-11-02T05:30:05;12.50;99.90
24522;DHT22;12680;57.804;12.190;2022-11-02T05:32:33;12.50;99.90
24522;DHT22;12680;57.804;12.190;2022-11-02T05:35:00;12.50;99.90
24522;DHT22;12680;57.804;12.190;2022-11-02T05:37:27;12.50;99.90
24522;DHT22;12680;57.804;12.190;2022-11-02T05:39:54;12.50;99.90
24522;DHT22;12680;57.804;12.190;2022-11-02T05:42:21;12.50;99.90
24522;DHT22;12680;57.804;12.190;2022-11-02T05:44:49;12.50;99.90
24522;DHT22;12680;57.804;12.190;2022-11-02T05:47:16;12.50;99.90
24522;DHT22;12680;57.804;12.190;2022-11-02T05:49:43;12.40;99.90
24522;DHT22;12680;57.804;12.190;2022-11-02T05:52:10;12.40;99.90
24522;DHT22;12680;57.804;12.190;2022-11-02T05:54:37;12.40;99.90
24522;DHT22;12680;57.804;12.190;2022-11-02T05:57:04;12.40;99.90
24522;DHT22;12680;57.804;12.190;2022-11-02T05:59:31;12.40;99.90
24522;DHT22;12680;57.804;12.190;2022-11-02T06:01:58;12.40;99.90
24522;DHT22;12680;57.804;12.190;2022-11-02T06:04:26;12.40;99.90
24522;DHT22;12680;57.804;12.190;2022-11-02T06:06:53;12.40;99.90
24522;DHT22;12680;57.804;12.190;2022-11-02T06:09:20;12.40;99.90
24522;DHT22;12680;57.804;12.190;2022-11-02T06:11:47;12.40;99.90
24522;DHT22;12680;57.804;12.190;2022-11-02T06:14:14;12.40;99.90
24522;DHT22;12680;57.804;12.190;2022-11-02T06:16:42;12.40;99.90
24522;DHT22;12680;57.804;12.190;2022-11-02T06:19:09;12.40;99.90
24522;DHT22;12680;57.804;12.190;2022-11-02T06:21:36;12.40;99.90
24522;DHT22;12680;57.804;12.190;2022-11-02T06:24:03;12.40;99.90
24522;DHT22;12680;57.804;12.190;2022-11-02T06:26:30;12.40;99.90
24522;DHT22;12680;57.804;12.190;2022-11-02T06:28:57;12.40;99.90
24522;DHT22;12680;57.804;12.190;2022-11-02T06:31:25;12.40;99.90
24522;DHT22;12680;57.804;12.190;2022-11-02T06:33:52;12.40;99.90
24522;DHT22;12680;57.804;12.190;2022-11-02T06:36:19;12.40;99.90
24522;DHT22;12680;57.804;12.190;2022-11-02T06:38:46;12.40;99.90
24522;DHT22;12680;57.804;12.190;2022-11-02T06:41:13;12.40;99.90
24522;DHT22;12680;57.804;12.190;2022-11-02T06:43:41;12.40;99.90
24522;DHT22;12680;57.804;12.190;2022-11-02T06:46:08;12.30;99.90
24522;DHT22;12680;57.804;12.190;2022-11-02T06:48:35;12.30;99.90
24522;DHT22;12680;57.804;12.190;2022-11-02T06:51:03;12.30;99.90
24522;DHT22;12680;57.804;12.190;2022-11-02T06:53:31;12.30;99.90
24522;DHT22;12680;57.804;12.190;2022-11-02T06:55:59;12.30;99.90
24522;DHT22;12680;57.804;12.190;2022-11-02T06:58:26;12.30;99.90
24522;DHT22;12680;57.804;12.190;2022-11-02T07:01:02;12.40;99.90
24522;DHT22;12680;57.804;12.190;2022-11-02T07:03:29;12.30;99.90
24522;DHT22;12680;57.804;12.190;2022-11-02T07:05:57;12.30;99.90
24522;DHT22;12680;57.804;12.190;2022-11-02T07:08:25;12.40;99.90
24522;DHT22;12680;57.804;12.190;2022-11-02T07:10:53;12.40;99.90
24522;DHT22;12680;57.804;12.190;2022-11-02T07:13:20;12.40;99.90
24522;DHT22;12680;57.804;12.190;2022-11-02T07:15:51;12.40;99.90
24522;DHT22;12680;57.804;12.190;2022-11-02T07:18:19;12.40;99.90
24522;DHT22;12680;57.804;12.190;2022-11-02T07:20:46;12.40;99.90
24522;DHT22;12680;57.804;12.190;2022-11-02T07:23:13;12.40;99.90
24522;DHT22;12680;57.804;12.190;2022-11-02T07:25:40;12.40;99.90
24522;DHT22;12680;57.804;12.190;2022-11-02T07:28:07;12.40;99.90
24522;DHT22;12680;57.804;12.190;2022-11-02T07:30:35;12.40;99.90
24522;DHT22;12680;57.804;12.190;2022-11-02T07:33:02;12.40;99.90
24522;DHT22;12680;57.804;12.190;2022-11-02T07:35:29;12.40;99.90
24522;DHT22;12680;57.804;12.190;2022-11-02T07:37:58;12.40;99.90
24522;DHT22;12680;57.804;12.190;2022-11-02T07:40:26;12.40;99.90
24522;DHT22;12680;57.804;12.190;2022-11-02T07:42:54;12.30;99.90
24522;DHT22;12680;57.804;12.190;2022-11-02T07:45:22;12.40;99.90
24522;DHT22;12680;57.804;12.190;2022-11-02T07:47:50;12.40;99.90
24522;DHT22;12680;57.804;12.190;2022-11-02T07:50:19;12.40;99.90
24522;DHT22;12680;57.804;12.190;2022-11-02T07:52:51;12.40;99.90
24522;DHT22;12680;57.804;12.190;2022-11-02T07:55:21;12.40;99.90
24522;DHT22;12680;57.804;12.190;2022-11-02T07:58:00;12.40;99.90
24522;DHT22;12680;57.804;12.190;2022-11-02T08:00:30;12.40;99.90
24522;DHT22;12680;57.804;12.190;2022-11-02T08:03:00;12.40;99.90
24522;DHT22;12680;57.804;12.190;2022-11-02T08:05:29;12.40;99.90
24522;DHT22;12680;57.804;12.190;2022-11-02T08:07:57;12.40;99.90
24522;DHT22;12680;57.804;12.190;2022-11-02T08:10:25;12.40;99.90
24522;DHT22;12680;57.804;12.190;2022-11-02T08:12:53;12.40;99.90
24522;DHT22;12680;57.804;12.190;2022-11-02T08:15:21;12.40;99.90
24522;DHT22;12680;57.804;12.190;2022-11-02T08:18:05;12.40;99.90
24522;DHT22;12680;57.804;12.190;2022-11-02T08:20:34;12.40;99.90
24522;DHT22;12680;57.804;12.190;2022-11-02T08:23:03;12.40;99.90
24522;DHT22;12680;57.804;12.190;2022-11-02T08:25:31;12.40;99.90
24522;DHT22;12680;57.804;12.190;2022-11-02T08:27:59;12.40;99.90
24522;DHT22;12680;57.804;12.190;2022-11-02T08:30:28;12.40;99.90
24522;DHT22;12680;57.804;12.190;2022-11-02T08:33:02;12.40;99.90
24522;DHT22;12680;57.804;12.190;2022-11-02T08:35:29;12.40;99.90
24522;DHT22;12680;57.804;12.190;2022-11-02T08:37:57;12.40;99.90
24522;DHT22;12680;57.804;12.190;2022-11-02T08:40:26;12.50;99.90
24522;DHT22;12680;57.804;12.190;2022-11-02T08:43:02;12.50;99.90
24522;DHT22;12680;57.804;12.190;2022-11-02T08:45:30;12.50;99.90
24522;DHT22;12680;57.804;12.190;2022-11-02T08:48:18;12.50;99.90
24522;DHT22;12680;57.804;12.190;2022-11-02T08:50:46;12.60;99.90
24522;DHT22;12680;57.804;12.190;2022-11-02T08:53:13;12.60;99.90
24522;DHT22;12680;57.804;12.190;2022-11-02T08:55:41;12.60;99.90
24522;DHT22;12680;57.804;12.190;2022-11-02T08:58:08;12.60;99.90
24522;DHT22;12680;57.804;12.190;2022-11-02T09:00:35;12.60;99.90
24522;DHT22;12680;57.804;12.190;2022-11-02T09:03:10;12.60;99.90
24522;DHT22;12680;57.804;12.190;2022-11-02T09:05:42;12.60;99.90
24522;DHT22;12680;57.804;12.190;2022-11-02T09:08:16;12.60;99.90
24522;DHT22;12680;57.804;12.190;2022-11-02T09:10:45;12.60;99.90
24522;DHT22;12680;57.804;12.190;2022-11-02T09:13:14;12.60;99.90
24522;DHT22;12680;57.804;12.190;2022-11-02T09:15:44;12.70;99.90
24522;DHT22;12680;57.804;12.190;2022-11-02T09:18:11;12.70;99.90
24522;DHT22;12680;57.804;12.190;2022-11-02T09:20:38;12.80;99.90
24522;DHT22;12680;57.804;12.190;2022-11-02T09:23:05;12.80;99.90
24522;DHT22;12680;57.804;12.190;2022-11-02T09:25:32;12.80;99.90
24522;DHT22;12680;57.804;12.190;2022-11-02T09:27:59;12.90;99.90
24522;DHT22;12680;57.804;12.190;2022-11-02T09:30:27;12.90;99.90
24522;DHT22;12680;57.804;12.190;2022-11-02T09:32:58;12.90;99.90
24522;DHT22;12680;57.804;12.190;2022-11-02T09:35:27;12.90;99.90
24522;DHT22;12680;57.804;12.190;2022-11-02T09:37:55;12.90;99.90
24522;DHT22;12680;57.804;12.190;2022-11-02T09:40:28;12.90;99.90
24522;DHT22;12680;57.804;12.190;2022-11-02T09:45:52;12.90;99.90
24522;DHT22;12680;57.804;12.190;2022-11-02T09:48:27;12.90;99.90
24522;DHT22;12680;57.804;12.190;2022-11-02T09:51:26;12.90;99.90
24522;DHT22;12680;57.804;12.190;2022-11-02T09:56:42;13.00;99.90
24522;DHT22;12680;57.804;12.190;2022-11-02T09:59:11;13.00;99.90
24522;DHT22;12680;57.804;12.190;2022-11-02T10:07:32;13.00;99.90
24522;DHT22;12680;57.804;12.190;2022-11-02T10:10:16;13.00;99.90
24522;DHT22;12680;57.804;12.190;2022-11-02T10:15:31;13.00;99.90
24522;DHT22;12680;57.804;12.190;2022-11-02T10:18:02;13.20;99.90
24522;DHT22;12680;57.804;12.190;2022-11-02T10:20:45;13.20;99.90
24522;DHT22;12680;57.804;12.190;2022-11-02T10:23:38;13.30;99.90
24522;DHT22;12680;57.804;12.190;2022-11-02T10:26:15;13.30;99.90
24522;DHT22;12680;57.804;12.190;2022-11-02T10:28:47;13.30;99.90
24522;DHT22;12680;57.804;12.190;2022-11-02T10:33:52;13.30;99.90
24522;DHT22;12680;57.804;12.190;2022-11-02T10:36:53;13.30;99.90
24522;DHT22;12680;57.804;12.190;2022-11-02T10:39:38;13.40;99.90
24522;DHT22;12680;57.804;12.190;2022-11-02T10:50:35;13.60;99.90
24522;DHT22;12680;57.804;12.190;2022-11-02T10:53:14;13.70;99.90
24522;DHT22;12680;57.804;12.190;2022-11-02T10:56:22;13.70;99.90
24522;DHT22;12680;57.804;12.190;2022-11-02T11:01:30;13.60;99.90
24522;DHT22;12680;57.804;12.190;2022-11-02T11:04:01;13.60;99.90
24522;DHT22;12680;57.804;12.190;2022-11-02T11:06:40;13.60;99.90
24522;DHT22;12680;57.804;12.190;2022-11-02T11:09:23;13.50;99.90
24522;DHT22;12680;57.804;12.190;2022-11-02T11:12:15;13.50;99.90
24522;DHT22;12680;57.804;12.190;2022-11-02T11:14:55;13.50;99.90
24522;DHT22;12680;57.804;12.190;2022-11-02T11:17:43;13.50;99.90
24522;DHT22;12680;57.804;12.190;2022-11-02T11:25:56;13.50;99.90
24522;DHT22;12680;57.804;12.190;2022-11-02T11:28:37;13.50;99.90
24522;DHT22;12680;57.804;12.190;2022-11-02T11:31:08;13.60;99.90
24522;DHT22;12680;57.804;12.190;2022-11-02T11:33:50;13.60;99.90
24522;DHT22;12680;57.804;12.190;2022-11-02T11:36:22;13.60;99.90
24522;DHT22;12680;57.804;12.190;2022-11-02T11:38:56;13.60;99.90
24522;DHT22;12680;57.804;12.190;2022-11-02T11:41:24;13.60;99.90
24522;DHT22;12680;57.804;12.190;2022-11-02T11:43:52;13.70;99.90
24522;DHT22;12680;57.804;12.190;2022-11-02T11:46:19;13.70;99.90
24522;DHT22;12680;57.804;12.190;2022-11-02T11:48:52;13.70;99.90
24522;DHT22;12680;57.804;12.190;2022-11-02T11:51:34;13.60;99.90
24522;DHT22;12680;57.804;12.190;2022-11-02T11:56:47;13.60;99.90
24522;DHT22;12680;57.804;12.190;2022-11-02T11:59:30;13.60;99.90
24522;DHT22;12680;57.804;12.190;2022-11-02T12:04:57;13.80;99.90
24522;DHT22;12680;57.804;12.190;2022-11-02T12:07:34;13.80;99.90
24522;DHT22;12680;57.804;12.190;2022-11-02T12:10:58;13.80;99.90
24522;DHT22;12680;57.804;12.190;2022-11-02T12:16:15;13.70;99.90
24522;DHT22;12680;57.804;12.190;2022-11-02T12:19:22;13.60;99.90
24522;DHT22;12680;57.804;12.190;2022-11-02T12:22:14;13.50;99.90
24522;DHT22;12680;57.804;12.190;2022-11-02T12:25:07;13.30;99.90
24522;DHT22;12680;57.804;12.190;2022-11-02T12:30:28;13.10;99.90
24522;DHT22;12680;57.804;12.190;2022-11-02T12:33:47;13.00;99.90
24522;DHT22;12680;57.804;12.190;2022-11-02T12:38:56;13.00;99.90
24522;DHT22;12680;57.804;12.190;2022-11-02T12:50:26;12.90;99.90
24522;DHT22;12680;57.804;12.190;2022-11-02T12:53:36;12.90;99.90
24522;DHT22;12680;57.804;12.190;2022-11-02T12:56:09;12.90;99.90
24522;DHT22;12680;57.804;12.190;2022-11-02T12:58:40;12.90;99.90
24522;DHT22;12680;57.804;12.190;2022-11-02T13:01:29;12.90;99.90
24522;DHT22;12680;57.804;12.190;2022-11-02T13:06:47;12.80;99.90
24522;DHT22;12680;57.804;12.190;2022-11-02T13:09:35;12.80;99.90
24522;DHT22;12680;57.804;12.190;2022-11-02T13:12:09;12.70;99.90
24522;DHT22;12680;57.804;12.190;2022-11-02T13:14:43;12.70;99.90
24522;DHT22;12680;57.804;12.190;2022-11-02T13:20:35;12.70;99.90
24522;DHT22;12680;57.804;12.190;2022-11-02T13:26:00;12.70;99.90
24522;DHT22;12680;57.804;12.190;2022-11-02T13:28:43;12.80;99.90
24522;DHT22;12680;57.804;12.190;2022-11-02T13:31:26;12.90;99.90
24522;DHT22;12680;57.804;12.190;2022-11-02T13:33:55;12.80;99.90
24522;DHT22;12680;57.804;12.190;2022-11-02T13:36:26;12.80;99.90
24522;DHT22;12680;57.804;12.190;2022-11-02T13:39:15;12.80;99.90
24522;DHT22;12680;57.804;12.190;2022-11-02T13:50:30;12.60;99.90
24522;DHT22;12680;57.804;12.190;2022-11-02T13:53:01;12.60;99.90
24522;DHT22;12680;57.804;12.190;2022-11-02T13:55:53;12.60;99.90
24522;DHT22;12680;57.804;12.190;2022-11-02T13:58:30;12.60;99.90
24522;DHT22;12680;57.804;12.190;2022-11-02T14:01:01;12.60;99.90
24522;DHT22;12680;57.804;12.190;2022-11-02T14:04:17;12.60;99.90
24522;DHT22;12680;57.804;12.190;2022-11-02T14:06:27;12.60;99.90
24522;DHT22;12680;57.804;12.190;2022-11-02T14:09:01;12.50;99.90
24522;DHT22;12680;57.804;12.190;2022-11-02T14:11:46;12.50;99.90
24522;DHT22;12680;57.804;12.190;2022-11-02T14:14:20;12.50;99.90
24522;DHT22;12680;57.804;12.190;2022-11-02T14:27:26;12.60;99.90
24522;DHT22;12680;57.804;12.190;2022-11-02T14:29:54;12.60;99.90
24522;DHT22;12680;57.804;12.190;2022-11-02T14:32:40;12.60;99.90
24522;DHT22;12680;57.804;12.190;2022-11-02T14:35:30;12.50;99.90
24522;DHT22;12680;57.804;12.190;2022-11-02T14:44:00;12.40;99.90
24522;DHT22;12680;57.804;12.190;2022-11-02T14:49:23;12.40;99.90
24522;DHT22;12680;57.804;12.190;2022-11-02T14:52:21;12.30;99.90
24522;DHT22;12680;57.804;12.190;2022-11-02T14:54:59;12.30;99.90
24522;DHT22;12680;57.804;12.190;2022-11-02T15:02:44;12.20;99.90
24522;DHT22;12680;57.804;12.190;2022-11-02T15:05:32;12.20;99.90
24522;DHT22;12680;57.804;12.190;2022-11-02T15:08:25;12.20;99.90
24522;DHT22;12680;57.804;12.190;2022-11-02T15:10:53;12.10;99.90
24522;DHT22;12680;57.804;12.190;2022-11-02T15:13:26;12.10;99.90
24522;DHT22;12680;57.804;12.190;2022-11-02T15:26:53;12.00;99.90
24522;DHT22;12680;57.804;12.190;2022-11-02T15:31:55;12.00;99.90
24522;DHT22;12680;57.804;12.190;2022-11-02T15:34:35;12.00;99.90
24522;DHT22;12680;57.804;12.190;2022-11-02T15:37:06;12.00;99.90
24522;DHT22;12680;57.804;12.190;2022-11-02T15:39:34;12.00;99.90
24522;DHT22;12680;57.804;12.190;2022-11-02T15:42:09;12.00;99.90
24522;DHT22;12680;57.804;12.190;2022-11-02T15:47:46;12.00;99.90
24522;DHT22;12680;57.804;12.190;2022-11-02T15:53:43;11.90;99.90
24522;DHT22;12680;57.804;12.190;2022-11-02T16:01:23;12.00;99.90
24522;DHT22;12680;57.804;12.190;2022-11-02T16:04:00;12.00;99.90
24522;DHT22;12680;57.804;12.190;2022-11-02T16:09:35;12.00;99.90
24522;DHT22;12680;57.804;12.190;2022-11-02T16:12:23;12.00;99.90
24522;DHT22;12680;57.804;12.190;2022-11-02T16:15:08;11.90;99.90
24522;DHT22;12680;57.804;12.190;2022-11-02T16:17:37;11.90;99.90
24522;DHT22;12680;57.804;12.190;2022-11-02T16:20:32;11.90;99.90
24522;DHT22;12680;57.804;12.190;2022-11-02T16:23:04;11.80;99.90
24522;DHT22;12680;57.804;12.190;2022-11-02T16:28:26;11.70;99.90
24522;DHT22;12680;57.804;12.190;2022-11-02T16:31:14;11.60;99.90
24522;DHT22;12680;57.804;12.190;2022-11-02T16:33:58;11.50;99.90
24522;DHT22;12680;57.804;12.190;2022-11-02T16:36:28;11.40;99.90
24522;DHT22;12680;57.804;12.190;2022-11-02T16:41:31;11.40;99.90
24522;DHT22;12680;57.804;12.190;2022-11-02T16:44:10;11.30;99.90
24522;DHT22;12680;57.804;12.190;2022-11-02T16:46:51;11.30;99.90
24522;DHT22;12680;57.804;12.190;2022-11-02T16:49:21;11.20;99.90
24522;DHT22;12680;57.804;12.190;2022-11-02T16:51:58;11.10;99.90
24522;DHT22;12680;57.804;12.190;2022-11-02T16:54:39;11.00;99.90
24522;DHT22;12680;57.804;12.190;2022-11-02T16:57:17;10.90;99.90
24522;DHT22;12680;57.804;12.190;2022-11-02T17:02:37;10.80;99.90
24522;DHT22;12680;57.804;12.190;2022-11-02T17:05:18;10.70;99.90
24522;DHT22;12680;57.804;12.190;2022-11-02T17:07:54;10.60;99.90
24522;DHT22;12680;57.804;12.190;2022-11-02T17:10:26;10.70;99.90
24522;DHT22;12680;57.804;12.190;2022-11-02T17:12:54;10.70;99.90
24522;DHT22;12680;57.804;12.190;2022-11-02T17:15:24;10.80;99.90
24522;DHT22;12680;57.804;12.190;2022-11-02T17:23:39;10.80;99.90
24522;DHT22;12680;57.804;12.190;2022-11-02T17:28:53;10.90;99.90
24522;DHT22;12680;57.804;12.190;2022-11-02T17:31:34;10.80;99.90
24522;DHT22;12680;57.804;12.190;2022-11-02T17:34:12;10.80;99.90
24522;DHT22;12680;57.804;12.190;2022-11-02T17:36:48;10.80;99.90
24522;DHT22;12680;57.804;12.190;2022-11-02T17:39:17;10.80;99.90
24522;DHT22;12680;57.804;12.190;2022-11-02T17:41:52;10.80;99.90
24522;DHT22;12680;57.804;12.190;2022-11-02T17:44:38;10.80;99.90
24522;DHT22;12680;57.804;12.190;2022-11-02T17:47:12;10.80;99.90
24522;DHT22;12680;57.804;12.190;2022-11-02T17:49:41;10.80;99.90
24522;DHT22;12680;57.804;12.190;2022-11-02T17:52:13;10.80;99.90
24522;DHT22;12680;57.804;12.190;2022-11-02T17:54:42;10.80;99.90
24522;DHT22;12680;57.804;12.190;2022-11-02T17:57:13;10.80;99.90
24522;DHT22;12680;57.804;12.190;2022-11-02T17:59:41;10.90;99.90
24522;DHT22;12680;57.804;12.190;2022-11-02T18:02:11;10.90;99.90
24522;DHT22;12680;57.804;12.190;2022-11-02T18:04:39;10.90;99.90
24522;DHT22;12680;57.804;12.190;2022-11-02T18:07:06;10.90;99.90
24522;DHT22;12680;57.804;12.190;2022-11-02T18:09:33;10.80;99.90
24522;DHT22;12680;57.804;12.190;2022-11-02T18:12:01;10.80;99.90
24522;DHT22;12680;57.804;12.190;2022-11-02T18:14:28;10.70;99.90
24522;DHT22;12680;57.804;12.190;2022-11-02T18:16:55;10.70;99.90
24522;DHT22;12680;57.804;12.190;2022-11-02T18:19:22;10.70;99.90
24522;DHT22;12680;57.804;12.190;2022-11-02T18:21:53;10.60;99.90
24522;DHT22;12680;57.804;12.190;2022-11-02T18:24:20;10.60;99.90
24522;DHT22;12680;57.804;12.190;2022-11-02T18:26:47;10.70;99.90
24522;DHT22;12680;57.804;12.190;2022-11-02T18:29:14;10.70;99.90
24522;DHT22;12680;57.804;12.190;2022-11-02T18:31:42;10.70;99.90
24522;DHT22;12680;57.804;12.190;2022-11-02T18:34:09;10.70;99.90
24522;DHT22;12680;57.804;12.190;2022-11-02T18:36:38;10.60;99.90
24522;DHT22;12680;57.804;12.190;2022-11-02T18:39:05;10.60;99.90